createdAt,value
2023-05-08T00:02:20.021Z,72.40
2023-05-08T00:04:48.080Z,72.40
2023-05-08T00:07:16.114Z,72.40
2023-05-08T00:09:44.018Z,72.40
2023-05-08T00:12:12.012Z,72.40
2023-05-08T00:14:40.029Z,72.40
2023-05-08T00:17:09.544Z,72.40
2023-05-08T00:19:37.672Z,72.30
2023-05-08T00:22:05.654Z,72.30
2023-05-08T00:24:33.594Z,72.40
2023-05-08T00:27:01.501Z,72.40
2023-05-08T00:29:29.412Z,72.30
2023-05-08T00:31:57.521Z,72.30
2023-05-08T00:34:27.010Z,72.30
2023-05-08T00:36:55.674Z,72.40
2023-05-08T00:39:23.748Z,72.40
2023-05-08T00:41:51.673Z,72.30
2023-05-08T00:44:19.711Z,72.40
2023-05-08T00:46:47.876Z,72.40
2023-05-08T00:49:16.537Z,72.40
2023-05-08T00:51:46.495Z,72.40
2023-05-08T00:54:14.852Z,72.40
2023-05-08T00:56:42.922Z,72.40
2023-05-08T00:59:12.692Z,72.40
2023-05-08T01:01:41.955Z,72.40
2023-05-08T01:04:10.087Z,72.40
2023-05-08T01:06:38.410Z,72.40
2023-05-08T01:09:08.118Z,72.30
2023-05-08T01:11:39.026Z,72.30
2023-05-08T01:14:13.380Z,72.30
2023-05-08T01:16:44.873Z,72.30
2023-05-08T01:19:25.011Z,72.30
2023-05-08T01:21:55.807Z,72.30
2023-05-08T01:24:37.912Z,72.40
2023-05-08T01:27:23.756Z,72.30
2023-05-08T01:30:09.081Z,72.30
2023-05-08T01:32:40.412Z,72.30
2023-05-08T01:35:13.867Z,72.30
2023-05-08T01:37:47.247Z,72.30
2023-05-08T01:40:19.409Z,72.30
2023-05-08T01:42:49.620Z,72.30
2023-05-08T01:45:20.834Z,72.30
2023-05-08T01:47:53.007Z,72.30
2023-05-08T01:50:23.296Z,72.30
2023-05-08T01:52:54.409Z,72.30
2023-05-08T01:55:25.751Z,72.40
2023-05-08T01:57:55.932Z,72.30
2023-05-08T02:00:25.217Z,72.30
2023-05-08T02:02:55.754Z,72.30
2023-05-08T02:05:24.864Z,72.30
2023-05-08T02:07:53.002Z,72.30
2023-05-08T02:10:22.266Z,72.30
2023-05-08T02:12:51.059Z,72.20
2023-05-08T02:15:19.975Z,72.30
2023-05-08T02:17:49.999Z,72.30
2023-05-08T02:20:19.784Z,72.30
2023-05-08T02:22:50.375Z,72.30
2023-05-08T02:25:19.157Z,72.20
2023-05-08T02:27:48.291Z,72.20
2023-05-08T02:30:17.025Z,72.20
2023-05-08T02:32:46.074Z,72.30
2023-05-08T02:35:15.014Z,72.30
2023-05-08T02:37:45.430Z,72.30
2023-05-08T02:40:14.369Z,72.20
2023-05-08T02:42:42.662Z,72.20
2023-05-08T02:45:12.208Z,72.20
2023-05-08T02:47:43.528Z,72.30
2023-05-08T02:50:16.182Z,72.20
2023-05-08T02:52:47.029Z,72.20
2023-05-08T02:55:19.098Z,72.20
2023-05-08T02:57:48.405Z,72.30
2023-05-08T03:00:18.433Z,72.20
2023-05-08T03:02:49.854Z,72.20
2023-05-08T03:05:19.678Z,72.20
2023-05-08T03:07:50.990Z,72.20
2023-05-08T03:10:19.707Z,72.20
2023-05-08T03:12:49.763Z,72.20
2023-05-08T03:15:20.413Z,72.20
2023-05-08T03:17:48.681Z,72.20
2023-05-08T03:20:18.603Z,72.20
2023-05-08T03:22:48.308Z,72.20
2023-05-08T03:25:19.578Z,72.20
2023-05-08T03:27:48.844Z,72.20
2023-05-08T03:30:17.956Z,72.20
2023-05-08T03:32:46.706Z,72.20
2023-05-08T03:35:14.961Z,72.20
2023-05-08T03:37:43.438Z,72.20
2023-05-08T03:40:12.094Z,72.20
2023-05-08T03:42:43.014Z,72.20
2023-05-08T03:45:11.971Z,72.20
2023-05-08T03:47:41.315Z,72.20
2023-05-08T03:50:10.646Z,72.20
2023-05-08T03:52:39.558Z,72.20
2023-05-08T03:55:08.223Z,72.20
2023-05-08T03:57:41.624Z,72.20
2023-05-08T04:00:15.016Z,72.20
2023-05-08T04:02:48.472Z,72.20
2023-05-08T04:05:22.066Z,72.20
2023-05-08T04:07:54.153Z,72.20
2023-05-08T04:10:25.708Z,72.20
2023-05-08T04:12:56.893Z,72.10
2023-05-08T04:15:28.243Z,72.10
2023-05-08T04:17:58.596Z,72.10
2023-05-08T04:20:27.925Z,72.10
2023-05-08T04:22:56.036Z,72.10
2023-05-08T04:25:24.133Z,72.10
2023-05-08T04:27:52.443Z,72.10
2023-05-08T04:30:20.473Z,72.10
2023-05-08T04:32:50.642Z,72.10
2023-05-08T04:35:18.899Z,72.10
2023-05-08T04:37:47.325Z,72.10
2023-05-08T04:40:15.410Z,72.10
2023-05-08T04:42:47.261Z,72.10
2023-05-08T04:45:15.817Z,72.10
2023-05-08T04:47:43.760Z,72.10
2023-05-08T04:50:13.510Z,72.10
2023-05-08T04:52:41.535Z,72.10
2023-05-08T04:55:10.380Z,72.10
2023-05-08T04:57:38.420Z,72.10
2023-05-08T05:00:07.269Z,72.10
2023-05-08T05:02:35.328Z,72.10
2023-05-08T05:05:03.435Z,72.10
2023-05-08T05:07:32.817Z,72.10
2023-05-08T05:10:01.020Z,72.10
2023-05-08T05:12:29.010Z,72.10
2023-05-08T05:14:57.016Z,72.10
2023-05-08T05:17:25.202Z,72.00
2023-05-08T05:19:53.507Z,72.00
2023-05-08T05:22:21.579Z,72.10
2023-05-08T05:24:51.714Z,72.10
2023-05-08T05:27:21.375Z,72.00
2023-05-08T05:29:50.759Z,72.00
2023-05-08T05:32:18.886Z,72.00
2023-05-08T05:34:46.867Z,72.10
2023-05-08T05:37:14.828Z,72.00
2023-05-08T05:39:42.874Z,72.00
2023-05-08T05:42:12.599Z,72.00
2023-05-08T05:44:40.591Z,72.10
2023-05-08T05:47:10.235Z,72.00
2023-05-08T05:49:39.785Z,72.00
2023-05-08T05:52:07.886Z,72.00
2023-05-08T05:54:36.010Z,72.00
2023-05-08T05:57:03.965Z,72.00
2023-05-08T05:59:33.369Z,72.00
2023-05-08T06:02:01.382Z,72.00
2023-05-08T06:04:29.687Z,72.00
2023-05-08T06:06:57.721Z,72.00
2023-05-08T06:09:25.753Z,72.00
2023-05-08T06:11:53.794Z,72.10
2023-05-08T06:14:21.852Z,72.00
2023-05-08T06:16:51.252Z,72.00
2023-05-08T06:19:19.267Z,72.00
2023-05-08T06:21:47.268Z,72.10
2023-05-08T06:24:15.739Z,72.00
2023-05-08T06:26:43.715Z,72.00
2023-05-08T06:29:11.805Z,72.00
2023-05-08T06:31:39.746Z,72.00
2023-05-08T06:34:09.247Z,72.00
2023-05-08T06:36:37.609Z,72.00
2023-05-08T06:39:05.804Z,72.00
2023-05-08T06:41:33.739Z,72.00
2023-05-08T06:44:01.637Z,72.00
2023-05-08T06:46:30.065Z,72.00
2023-05-08T06:48:58.095Z,72.00
2023-05-08T06:51:27.534Z,72.00
2023-05-08T06:53:55.508Z,72.10
2023-05-08T06:56:24.551Z,72.10
2023-05-08T06:59:04.556Z,72.40
2023-05-08T07:01:37.496Z,72.10
2023-05-08T07:04:05.829Z,72.10
2023-05-08T07:06:35.398Z,72.10
2023-05-08T07:09:03.386Z,72.10
2023-05-08T07:11:31.391Z,72.00
2023-05-08T07:14:00.213Z,72.00
2023-05-08T07:16:28.293Z,72.00
2023-05-08T07:18:56.188Z,71.90
2023-05-08T07:21:24.075Z,72.00
2023-05-08T07:23:53.977Z,72.00
2023-05-08T07:26:22.579Z,72.00
2023-05-08T07:28:50.898Z,72.00
2023-05-08T07:31:18.930Z,71.90
2023-05-08T07:33:47.030Z,71.90
2023-05-08T07:36:15.424Z,72.00
2023-05-08T07:38:43.468Z,72.00
2023-05-08T07:41:12.922Z,72.00
2023-05-08T07:43:41.018Z,72.00
2023-05-08T07:46:08.936Z,71.90
2023-05-08T07:48:36.976Z,71.90
2023-05-08T07:51:05.093Z,72.00
2023-05-08T07:53:33.022Z,72.00
2023-05-08T07:56:00.900Z,71.90
2023-05-08T07:58:30.190Z,71.90
2023-05-08T08:00:58.301Z,71.90
2023-05-08T08:03:26.369Z,72.00
2023-05-08T08:05:55.327Z,72.00
2023-05-08T08:08:23.400Z,72.00
2023-05-08T08:10:51.636Z,71.90
2023-05-08T08:13:19.572Z,71.90
2023-05-08T08:15:48.958Z,71.90
2023-05-08T08:18:16.955Z,71.90
2023-05-08T08:20:44.952Z,71.90
2023-05-08T08:23:13.251Z,71.90
2023-05-08T08:25:41.205Z,71.90
2023-05-08T08:28:09.124Z,71.90
2023-05-08T08:30:37.130Z,72.50
2023-05-08T08:33:06.642Z,71.90
2023-05-08T08:35:34.676Z,71.90
2023-05-08T08:38:02.520Z,72.00
2023-05-08T08:40:30.523Z,71.90
2023-05-08T08:42:58.642Z,71.90
2023-05-08T08:45:26.645Z,71.90
2023-05-08T08:47:54.702Z,72.00
2023-05-08T08:50:26.158Z,72.00
2023-05-08T08:53:01.922Z,72.00
2023-05-08T08:55:31.149Z,72.00
2023-05-08T08:58:15.088Z,71.90
2023-05-08T09:00:43.398Z,72.00
2023-05-08T09:03:11.583Z,71.90
2023-05-08T09:05:41.438Z,71.90
2023-05-08T09:08:09.644Z,72.00
2023-05-08T09:10:37.855Z,72.00
2023-05-08T09:13:06.008Z,71.90
2023-05-08T09:15:34.154Z,71.90
2023-05-08T09:18:02.326Z,71.90
2023-05-08T09:20:30.540Z,72.00
2023-05-08T09:23:02.660Z,72.00
2023-05-08T09:25:42.228Z,72.00
2023-05-08T09:28:17.359Z,72.00
2023-05-08T09:30:52.212Z,72.00
2023-05-08T09:33:20.507Z,72.10
2023-05-08T09:35:49.565Z,72.00
2023-05-08T09:38:38.270Z,72.00
2023-05-08T09:41:10.009Z,72.10
2023-05-08T09:43:38.552Z,72.00
2023-05-08T09:46:21.153Z,72.00
2023-05-08T09:48:49.293Z,72.10
2023-05-08T09:51:17.448Z,72.10
2023-05-08T09:53:47.080Z,72.00
2023-05-08T09:56:14.992Z,72.10
2023-05-08T09:58:43.484Z,72.00
2023-05-08T10:01:28.568Z,72.00
2023-05-08T10:03:56.790Z,72.10
2023-05-08T10:06:25.172Z,72.10
2023-05-08T10:09:08.311Z,72.10
2023-05-08T10:11:37.831Z,72.10
2023-05-08T10:14:05.920Z,72.10
2023-05-08T10:16:37.549Z,72.10
2023-05-08T10:19:09.838Z,72.10
2023-05-08T10:21:39.184Z,72.10
2023-05-08T10:24:09.369Z,72.10
2023-05-08T10:26:42.083Z,72.10
2023-05-08T10:29:18.675Z,72.10
2023-05-08T10:31:47.891Z,72.10
2023-05-08T10:34:19.625Z,72.10
2023-05-08T10:36:47.905Z,72.10
2023-05-08T10:39:16.050Z,72.10
2023-05-08T10:41:45.764Z,72.10
2023-05-08T10:44:14.573Z,72.10
2023-05-08T10:46:46.884Z,72.10
2023-05-08T10:49:20.653Z,72.10
2023-05-08T10:51:54.199Z,72.20
2023-05-08T10:54:27.462Z,72.10
2023-05-08T10:57:07.865Z,72.20
2023-05-08T10:59:36.335Z,72.10
2023-05-08T11:02:08.262Z,72.10
2023-05-08T11:04:36.452Z,72.20
2023-05-08T11:07:05.091Z,72.20
2023-05-08T11:09:46.454Z,72.20
2023-05-08T11:12:25.050Z,72.10
2023-05-08T11:14:57.272Z,72.20
2023-05-08T11:17:25.751Z,72.20
2023-05-08T11:19:58.233Z,72.20
2023-05-08T11:22:28.610Z,72.20
2023-05-08T11:25:00.483Z,72.20
2023-05-08T11:27:49.316Z,72.20
2023-05-08T11:30:22.960Z,72.20
2023-05-08T11:32:57.762Z,72.20
2023-05-08T11:35:44.361Z,72.20
2023-05-08T11:38:30.047Z,72.20
2023-05-08T11:41:02.123Z,72.20
2023-05-08T11:43:48.053Z,72.20
2023-05-08T11:46:18.096Z,72.20
2023-05-08T11:48:46.762Z,72.10
2023-05-08T11:51:14.926Z,72.10
2023-05-08T11:53:45.069Z,72.20
2023-05-08T11:56:13.099Z,72.20
2023-05-08T11:58:41.118Z,72.10
2023-05-08T12:01:09.225Z,72.20
2023-05-08T12:03:38.703Z,72.20
2023-05-08T12:06:07.170Z,72.10
2023-05-08T12:08:39.927Z,72.20
2023-05-08T12:11:07.996Z,72.20
2023-05-08T12:13:36.014Z,72.20
2023-05-08T12:16:04.063Z,72.20
2023-05-08T12:18:32.059Z,72.20
2023-05-08T12:21:01.871Z,72.20
2023-05-08T12:23:30.976Z,72.20
2023-05-08T12:26:00.531Z,72.20
2023-05-08T12:28:28.672Z,72.20
2023-05-08T12:30:56.974Z,72.20
2023-05-08T12:33:25.850Z,72.20
2023-05-08T12:35:53.853Z,72.20
2023-05-08T12:38:26.966Z,72.20
2023-05-08T12:40:55.665Z,72.20
2023-05-08T12:43:32.234Z,72.20
2023-05-08T12:46:00.288Z,72.30
2023-05-08T12:48:28.598Z,72.30
2023-05-08T12:51:02.449Z,72.30
2023-05-08T12:53:33.941Z,72.30
2023-05-08T12:56:02.816Z,72.30
2023-05-08T12:58:34.438Z,72.30
2023-05-08T13:01:10.526Z,72.30
2023-05-08T13:03:38.904Z,72.30
2023-05-08T13:06:07.374Z,72.30
2023-05-08T13:08:38.048Z,72.30
2023-05-08T13:11:06.678Z,72.30
2023-05-08T13:13:35.346Z,72.30
2023-05-08T13:16:04.494Z,72.30
2023-05-08T13:18:32.583Z,72.30
2023-05-08T13:21:02.261Z,72.30
2023-05-08T13:23:30.322Z,72.40
2023-05-08T13:25:59.733Z,72.40
2023-05-08T13:28:27.639Z,72.30
2023-05-08T13:30:55.620Z,72.30
2023-05-08T13:33:23.589Z,72.30
2023-05-08T13:35:51.674Z,72.30
2023-05-08T13:38:19.712Z,72.30
2023-05-08T13:40:47.683Z,72.30
2023-05-08T13:43:17.068Z,72.40
2023-05-08T13:45:45.084Z,72.40
2023-05-08T13:48:13.027Z,72.30
2023-05-08T13:50:41.021Z,72.40
2023-05-08T13:53:08.952Z,72.30
2023-05-08T13:55:37.578Z,72.30
2023-05-08T13:58:05.575Z,72.40
2023-05-08T14:00:34.849Z,72.30
2023-05-08T14:03:02.807Z,72.40
2023-05-08T14:05:30.948Z,72.40
2023-05-08T14:07:58.904Z,72.40
2023-05-08T14:10:27.153Z,72.40
2023-05-08T14:12:55.152Z,73.00
2023-05-08T14:15:26.905Z,72.40
2023-05-08T14:18:01.220Z,72.30
2023-05-08T14:20:29.188Z,72.30
2023-05-08T14:23:00.092Z,72.30
2023-05-08T14:25:28.231Z,72.40
2023-05-08T14:27:56.236Z,72.40
2023-05-08T14:30:24.296Z,72.40
2023-05-08T14:32:52.349Z,72.40
2023-05-08T14:35:21.808Z,72.40
2023-05-08T14:37:49.655Z,72.40
2023-05-08T14:40:17.759Z,72.40
2023-05-08T14:42:45.739Z,72.40
2023-05-08T14:45:13.873Z,72.40
2023-05-08T14:47:42.028Z,72.40
2023-05-08T14:50:10.321Z,72.50
2023-05-08T14:52:39.723Z,72.40
2023-05-08T14:55:08.521Z,72.40
2023-05-08T14:57:36.648Z,72.40
2023-05-08T15:00:05.125Z,72.40
2023-05-08T15:02:33.157Z,72.40
2023-05-08T15:05:01.086Z,72.50
2023-05-08T15:07:29.145Z,72.40
2023-05-08T15:09:58.551Z,72.50
2023-05-08T15:12:26.491Z,72.40
2023-05-08T15:14:54.339Z,72.40
2023-05-08T15:17:22.213Z,72.60
2023-05-08T15:19:50.221Z,72.50
2023-05-08T15:22:18.219Z,72.50
2023-05-08T15:24:46.204Z,72.50
2023-05-08T15:27:15.586Z,72.50
2023-05-08T15:29:43.624Z,72.40
2023-05-08T15:32:11.629Z,72.50
2023-05-08T15:34:40.748Z,72.50
2023-05-08T15:37:08.873Z,72.50
2023-05-08T15:39:36.976Z,72.50
2023-05-08T15:42:05.230Z,72.50
2023-05-08T15:44:52.596Z,72.50
2023-05-08T15:47:23.100Z,72.50
2023-05-08T15:49:51.515Z,72.50
2023-05-08T15:52:19.952Z,72.50
2023-05-08T15:54:48.055Z,72.50
2023-05-08T15:57:16.079Z,72.50
2023-05-08T15:59:45.553Z,72.50
2023-05-08T16:02:13.586Z,72.50
2023-05-08T16:04:41.605Z,72.50
2023-05-08T16:07:09.816Z,72.50
2023-05-08T16:09:38.492Z,72.50
2023-05-08T16:12:07.026Z,72.50
2023-05-08T16:14:36.615Z,72.60
2023-05-08T16:17:08.011Z,72.50
2023-05-08T16:19:38.372Z,72.50
2023-05-08T16:22:06.932Z,72.60
2023-05-08T16:24:34.952Z,72.60
2023-05-08T16:27:02.964Z,72.60
2023-05-08T16:29:30.951Z,72.60
2023-05-08T16:31:59.261Z,72.50
2023-05-08T16:34:29.290Z,72.60
2023-05-08T16:36:58.513Z,72.60
2023-05-08T16:39:26.536Z,72.60
2023-05-08T16:41:54.567Z,72.60
2023-05-08T16:44:22.554Z,72.60
2023-05-08T16:46:50.643Z,72.60
2023-05-08T16:49:18.652Z,72.60
2023-05-08T16:51:48.068Z,72.50
2023-05-08T16:54:16.087Z,72.60
2023-05-08T16:56:43.999Z,72.60
2023-05-08T16:59:11.987Z,72.60
2023-05-08T17:01:40.122Z,72.60
2023-05-08T17:04:08.322Z,72.60
2023-05-08T17:06:36.275Z,72.60
2023-05-08T17:09:05.825Z,72.60
2023-05-08T17:11:33.821Z,72.60
2023-05-08T17:14:01.852Z,72.60
2023-05-08T17:16:29.799Z,72.60
2023-05-08T17:18:59.673Z,72.60
2023-05-08T17:21:27.643Z,72.60
2023-05-08T17:23:55.666Z,72.60
2023-05-08T17:26:25.091Z,72.60
2023-05-08T17:28:53.137Z,72.50
2023-05-08T17:31:21.385Z,72.50
2023-05-08T17:33:49.447Z,72.60
2023-05-08T17:36:17.469Z,72.60
2023-05-08T17:38:46.428Z,72.60
2023-05-08T17:41:14.444Z,72.50
2023-05-08T17:43:43.858Z,72.60
2023-05-08T17:46:12.063Z,72.60
2023-05-08T17:48:40.022Z,72.60
2023-05-08T17:51:08.054Z,72.60
2023-05-08T17:53:35.959Z,72.60
2023-05-08T17:56:03.983Z,72.60
2023-05-08T17:58:31.920Z,72.60
2023-05-08T18:01:01.390Z,72.60
2023-05-08T18:03:29.402Z,72.70
2023-05-08T18:05:57.336Z,72.60
2023-05-08T18:08:25.308Z,72.60
2023-05-08T18:10:53.226Z,72.60
2023-05-08T18:13:21.311Z,72.60
2023-05-08T18:15:49.407Z,72.60
2023-05-08T18:18:18.764Z,72.60
2023-05-08T18:20:46.681Z,72.70
2023-05-08T18:23:14.674Z,72.60
2023-05-08T18:25:42.629Z,72.60
2023-05-08T18:28:10.555Z,72.60
2023-05-08T18:30:40.265Z,72.60
2023-05-08T18:33:08.383Z,72.60
2023-05-08T18:35:37.856Z,72.60
2023-05-08T18:38:05.793Z,72.60
2023-05-08T18:40:33.874Z,72.70
2023-05-08T18:43:01.820Z,72.70
2023-05-08T18:45:29.923Z,73.40
2023-05-08T18:47:58.273Z,72.80
2023-05-08T18:50:26.292Z,72.70
2023-05-08T18:52:55.615Z,72.70
2023-05-08T18:55:25.272Z,72.70
2023-05-08T18:57:53.153Z,72.70
2023-05-08T19:00:21.505Z,72.70
2023-05-08T19:02:49.632Z,72.70
2023-05-08T19:05:17.918Z,72.70
2023-05-08T19:07:46.308Z,72.60
2023-05-08T19:10:15.839Z,72.70
2023-05-08T19:12:44.423Z,72.70
2023-05-08T19:15:13.934Z,72.70
2023-05-08T19:17:42.485Z,72.70
2023-05-08T19:20:11.105Z,72.70
2023-05-08T19:22:39.214Z,72.70
2023-05-08T19:25:07.531Z,72.70
2023-05-08T19:27:36.876Z,72.70
2023-05-08T19:30:05.358Z,72.70
2023-05-08T19:32:33.389Z,72.60
2023-05-08T19:35:02.624Z,72.60
2023-05-08T19:37:31.219Z,72.60
2023-05-08T19:39:59.377Z,72.60
2023-05-08T19:42:27.349Z,72.60
2023-05-08T19:44:56.735Z,72.60
2023-05-08T19:47:24.832Z,72.60
2023-05-08T19:49:52.746Z,72.60
2023-05-08T19:52:20.768Z,72.60
2023-05-08T19:54:48.739Z,72.60
2023-05-08T19:57:16.773Z,72.60
2023-05-08T19:59:44.731Z,72.70
2023-05-08T20:02:14.115Z,72.60
2023-05-08T20:05:08.004Z,72.60
2023-05-08T20:07:29.923Z,72.60
2023-05-08T20:09:57.945Z,72.60
2023-05-08T20:12:26.047Z,72.60
2023-05-08T20:14:54.204Z,72.60
2023-05-08T20:17:23.486Z,72.60
2023-05-08T20:19:51.591Z,72.60
2023-05-08T20:22:19.554Z,72.60
2023-05-08T20:24:47.534Z,72.60
2023-05-08T20:27:15.564Z,72.60
2023-05-08T20:29:43.535Z,72.60
2023-05-08T20:32:14.720Z,72.60
2023-05-08T20:34:45.201Z,72.60
2023-05-08T20:37:13.174Z,72.60
2023-05-08T20:39:41.189Z,72.60
2023-05-08T20:42:09.296Z,72.60
2023-05-08T20:44:37.284Z,72.60
2023-05-08T20:47:05.339Z,72.60
2023-05-08T20:49:33.354Z,72.60
2023-05-08T20:52:02.747Z,72.60
2023-05-08T20:54:30.842Z,72.60
2023-05-08T20:56:59.355Z,72.60
2023-05-08T20:59:27.417Z,72.60
2023-05-08T21:01:55.346Z,72.60
2023-05-08T21:04:23.363Z,72.60
2023-05-08T21:06:52.293Z,72.60
2023-05-08T21:09:21.719Z,72.60
2023-05-08T21:11:49.632Z,72.60
2023-05-08T21:14:17.562Z,72.70
2023-05-08T21:16:45.578Z,72.70
2023-05-08T21:19:17.338Z,72.70
2023-05-08T21:21:45.340Z,72.70
2023-05-08T21:24:13.572Z,72.60
2023-05-08T21:26:42.843Z,72.60
2023-05-08T21:29:11.334Z,72.70
2023-05-08T21:31:39.456Z,72.60
2023-05-08T21:34:08.045Z,72.70
2023-05-08T21:36:36.032Z,72.60
2023-05-08T21:39:05.206Z,72.70
2023-05-08T21:41:33.242Z,72.70
2023-05-08T21:44:02.627Z,72.60
2023-05-08T21:46:30.824Z,72.70
2023-05-08T21:48:58.855Z,72.70
2023-05-08T21:51:26.754Z,72.60
2023-05-08T21:53:54.661Z,72.70
2023-05-08T21:56:22.811Z,72.70
2023-05-08T21:58:51.017Z,72.70
2023-05-08T22:01:20.293Z,72.70
2023-05-08T22:03:48.379Z,72.70
2023-05-08T22:06:16.327Z,72.70
2023-05-08T22:08:44.290Z,72.70
2023-05-08T22:11:12.359Z,72.70
2023-05-08T22:13:40.376Z,72.70
2023-05-08T22:16:09.075Z,72.70
2023-05-08T22:18:38.640Z,72.70
2023-05-08T22:21:06.655Z,72.70
2023-05-08T22:23:34.623Z,72.70
2023-05-08T22:26:03.096Z,72.70
2023-05-08T22:28:30.999Z,72.70
2023-05-08T22:30:59.040Z,72.70
2023-05-08T22:33:27.028Z,72.70
2023-05-08T22:35:56.479Z,72.70
2023-05-08T22:38:24.412Z,72.70
2023-05-08T22:40:52.761Z,72.70
2023-05-08T22:43:20.780Z,72.70
2023-05-08T22:45:48.814Z,72.70
2023-05-08T22:48:16.727Z,72.70
2023-05-08T22:50:44.746Z,72.70
2023-05-08T22:53:14.135Z,72.70
2023-05-08T22:55:42.177Z,72.70
2023-05-08T22:58:10.178Z,72.70
2023-05-08T23:00:38.075Z,72.70
2023-05-08T23:03:06.114Z,72.70
2023-05-08T23:05:34.057Z,72.70
2023-05-08T23:08:02.377Z,72.70
2023-05-08T23:10:31.756Z,72.70
2023-05-08T23:12:59.724Z,72.70
2023-05-08T23:15:27.688Z,72.70
2023-05-08T23:17:55.713Z,72.60
2023-05-08T23:20:23.733Z,72.70
2023-05-08T23:22:51.631Z,72.70
2023-05-08T23:25:19.760Z,72.80
2023-05-08T23:27:49.089Z,72.70
2023-05-08T23:30:17.750Z,72.80
2023-05-08T23:32:46.048Z,72.70
2023-05-08T23:35:14.119Z,72.70
2023-05-08T23:37:42.194Z,72.70
2023-05-08T23:40:10.812Z,72.70
2023-05-08T23:42:39.905Z,72.70
2023-05-08T23:45:11.092Z,72.70
2023-05-08T23:47:39.147Z,72.70
2023-05-08T23:50:08.067Z,72.70
2023-05-08T23:52:36.118Z,72.70
2023-05-08T23:55:04.302Z,72.70
2023-05-08T23:57:32.368Z,72.70
